createdAt,value
2022-08-20T00:00:00.265Z,97623.09
2022-08-20T00:01:04.540Z,97620.06
2022-08-20T00:02:07.625Z,97615.53
2022-08-20T00:03:17.530Z,97619.69
2022-08-20T00:04:20.522Z,97626.94
2022-08-20T00:05:27.054Z,97623.94
2022-08-20T00:06:30.115Z,97624.22
2022-08-20T00:07:33.047Z,97625.72
2022-08-20T00:08:37.685Z,97625.72
2022-08-20T00:09:41.854Z,97634.00
2022-08-20T00:10:49.048Z,97628.34
2022-08-20T00:11:56.749Z,97630.63
2022-08-20T00:12:59.700Z,97631.06
2022-08-20T00:14:05.934Z,97634.91
2022-08-20T00:15:09.107Z,97627.78
2022-08-20T00:16:13.564Z,97633.03
2022-08-20T00:17:16.744Z,97631.06
2022-08-20T00:18:21.170Z,97630.72
2022-08-20T00:19:24.148Z,97623.03
2022-08-20T00:20:35.068Z,97634.75
2022-08-20T00:21:38.266Z,97634.34
2022-08-20T00:22:41.407Z,97638.09
2022-08-20T00:23:46.860Z,97638.84
2022-08-20T00:24:49.741Z,97639.16
2022-08-20T00:25:53.584Z,97640.34
2022-08-20T00:26:56.502Z,97639.91
2022-08-20T00:28:00.236Z,97646.44
2022-08-20T00:29:03.147Z,97649.38
2022-08-20T00:30:09.630Z,97649.44
2022-08-20T00:31:18.059Z,97641.81
2022-08-20T00:32:21.059Z,97648.63
2022-08-20T00:33:25.237Z,97641.91
2022-08-20T00:34:28.338Z,97648.41
2022-08-20T00:35:35.200Z,97652.84
2022-08-20T00:36:38.199Z,97641.25
2022-08-20T00:37:41.211Z,97644.69
2022-08-20T00:38:46.304Z,97652.38
2022-08-20T00:39:49.308Z,97645.94
2022-08-20T00:40:58.236Z,97650.97
2022-08-20T00:42:03.925Z,97650.66
2022-08-20T00:43:24.034Z,97651.47
2022-08-20T00:44:27.196Z,97644.78
2022-08-20T00:45:33.172Z,97638.09
2022-08-20T00:46:37.588Z,97637.69
2022-08-20T00:47:44.063Z,97641.41
2022-08-20T00:48:57.567Z,97647.13
2022-08-20T00:50:04.016Z,97644.63
2022-08-20T00:51:41.650Z,97638.91
2022-08-20T00:52:50.175Z,97649.16
2022-08-20T00:53:56.950Z,97643.00
2022-08-20T00:55:02.559Z,97635.84
2022-08-20T00:56:08.722Z,97632.41
2022-08-20T00:57:59.058Z,97630.19
2022-08-20T00:58:55.404Z,97629.06
2022-08-20T00:59:59.902Z,97620.31
2022-08-20T01:01:03.095Z,97617.63
2022-08-20T01:02:09.966Z,97619.16
2022-08-20T01:03:16.879Z,97607.41
2022-08-20T01:04:20.349Z,97604.41
2022-08-20T01:05:27.847Z,97608.47
2022-08-20T01:06:32.960Z,97607.72
2022-08-20T01:07:37.451Z,97608.47
2022-08-20T01:08:41.447Z,97602.09
2022-08-20T01:09:58.331Z,97604.34
2022-08-20T01:11:18.644Z,97603.25
2022-08-20T01:12:24.104Z,97597.81
2022-08-20T01:13:27.985Z,97602.97
2022-08-20T01:14:36.709Z,97612.31
2022-08-20T01:15:43.322Z,97617.50
2022-08-20T01:16:49.444Z,97618.41
2022-08-20T01:17:58.334Z,97632.56
2022-08-20T01:19:02.924Z,97636.53
2022-08-20T01:20:12.300Z,97640.75
2022-08-20T01:21:19.468Z,97634.53
2022-08-20T01:22:54.641Z,97636.50
2022-08-20T01:24:16.858Z,97635.06
2022-08-20T01:25:50.764Z,97626.22
2022-08-20T01:26:55.309Z,97619.41
2022-08-20T01:28:02.114Z,97628.47
2022-08-20T01:29:18.528Z,97632.72
2022-08-20T01:30:22.028Z,97627.69
2022-08-20T01:31:28.244Z,97626.75
2022-08-20T01:32:31.149Z,97619.22
2022-08-20T01:33:34.152Z,97622.53
2022-08-20T01:34:37.083Z,97619.91
2022-08-20T01:35:42.824Z,97619.47
2022-08-20T01:36:51.189Z,97617.84
2022-08-20T01:37:56.374Z,97621.09
2022-08-20T01:39:00.083Z,97619.59
2022-08-20T01:40:09.361Z,97618.62
2022-08-20T01:41:41.260Z,97614.44
2022-08-20T01:42:54.016Z,97606.25
2022-08-20T01:44:02.804Z,97597.81
2022-08-20T01:45:07.954Z,97601.38
2022-08-20T01:46:11.919Z,97599.78
2022-08-20T01:47:29.710Z,97603.97
2022-08-20T01:48:32.721Z,97601.38
2022-08-20T01:49:35.967Z,97605.34
2022-08-20T01:50:42.162Z,97604.62
2022-08-20T01:51:49.060Z,97595.31
2022-08-20T01:53:21.633Z,97598.34
2022-08-20T01:54:25.776Z,97591.53
2022-08-20T01:55:29.387Z,97585.56
2022-08-20T01:56:34.110Z,97581.75
2022-08-20T01:57:38.031Z,97583.31
2022-08-20T01:58:45.917Z,97585.19
2022-08-20T01:59:50.996Z,97584.66
2022-08-20T02:00:53.883Z,97592.94
2022-08-20T02:01:58.605Z,97587.41
2022-08-20T02:03:03.681Z,97588.59
2022-08-20T02:04:09.987Z,97587.88
2022-08-20T02:05:19.572Z,97591.69
2022-08-20T02:06:26.319Z,97597.44
2022-08-20T02:07:30.361Z,97595.13
2022-08-20T02:08:33.974Z,97594.34
2022-08-20T02:09:39.621Z,97594.00
2022-08-20T02:10:42.734Z,97594.34
2022-08-20T02:11:46.941Z,97592.09
2022-08-20T02:12:50.258Z,97596.31
2022-08-20T02:13:56.717Z,97593.63
2022-08-20T02:15:00.402Z,97581.81
2022-08-20T02:16:03.874Z,97593.34
2022-08-20T02:17:07.331Z,97584.63
2022-08-20T02:18:15.666Z,97587.97
2022-08-20T02:19:41.896Z,97577.06
2022-08-20T02:20:46.267Z,97576.66
2022-08-20T02:21:57.255Z,97578.13
2022-08-20T02:23:01.070Z,97583.81
2022-08-20T02:24:05.225Z,97581.91
2022-08-20T02:25:11.935Z,97586.50
2022-08-20T02:26:17.864Z,97593.28
2022-08-20T02:27:24.154Z,97595.47
2022-08-20T02:28:28.235Z,97594.78
2022-08-20T02:29:31.210Z,97593.28
2022-08-20T02:30:39.747Z,97596.72
2022-08-20T02:32:24.573Z,97600.53
2022-08-20T02:33:13.572Z,97590.28
2022-08-20T02:34:21.634Z,97590.28
2022-08-20T02:35:26.502Z,97596.31
2022-08-20T02:36:30.599Z,97595.06
2022-08-20T02:37:33.555Z,97586.66
2022-08-20T02:38:39.418Z,97598.06
2022-08-20T02:39:42.810Z,97594.66
2022-08-20T02:40:47.039Z,97596.97
2022-08-20T02:41:50.566Z,97608.41
2022-08-20T02:42:54.867Z,97605.72
2022-08-20T02:43:57.781Z,97604.91
2022-08-20T02:45:00.855Z,97609.47
2022-08-20T02:46:05.404Z,97613.28
2022-08-20T02:47:08.509Z,97610.28
2022-08-20T02:48:21.601Z,97607.28
2022-08-20T02:49:24.828Z,97609.09
2022-08-20T02:50:28.275Z,97611.72
2022-08-20T02:51:31.510Z,97607.97
2022-08-20T02:52:34.458Z,97590.19
2022-08-20T02:53:41.490Z,97597.19
2022-08-20T02:54:44.879Z,97598.31
2022-08-20T02:55:47.954Z,97605.94
2022-08-20T02:56:52.404Z,97601.09
2022-08-20T02:58:00.331Z,97598.72
2022-08-20T02:59:04.141Z,97607.91
2022-08-20T03:00:15.944Z,97605.25
2022-08-20T03:01:19.172Z,97615.44
2022-08-20T03:02:22.184Z,97624.56
2022-08-20T03:03:25.958Z,97633.25
2022-08-20T03:04:30.597Z,97633.28
2022-08-20T03:05:33.595Z,97635.22
2022-08-20T03:06:36.549Z,97635.38
2022-08-20T03:07:48.575Z,97631.09
2022-08-20T03:08:51.736Z,97634.75
2022-08-20T03:09:54.952Z,97634.78
2022-08-20T03:10:58.285Z,97636.75
2022-08-20T03:12:01.133Z,97640.50
2022-08-20T03:13:05.432Z,97640.84
2022-08-20T03:14:08.321Z,97639.41
2022-08-20T03:15:17.363Z,97644.34
2022-08-20T03:16:21.180Z,97654.28
2022-08-20T03:17:24.223Z,97663.69
2022-08-20T03:18:35.323Z,97686.34
2022-08-20T03:19:38.556Z,97710.97
2022-08-20T03:20:42.384Z,97721.97
2022-08-20T03:21:50.015Z,97703.56
2022-08-20T03:22:53.563Z,97682.81
2022-08-20T03:23:56.664Z,97689.41
2022-08-20T03:24:59.579Z,97696.91
2022-08-20T03:26:05.975Z,97695.97
2022-08-20T03:27:09.471Z,97699.28
2022-08-20T03:28:15.981Z,97700.78
2022-08-20T03:29:18.934Z,97700.84
2022-08-20T03:30:26.092Z,97698.41
2022-08-20T03:31:29.921Z,97691.94
2022-08-20T03:32:33.074Z,97702.31
2022-08-20T03:33:36.453Z,97690.19
2022-08-20T03:34:46.236Z,97701.09
2022-08-20T03:35:49.162Z,97707.34
2022-08-20T03:36:52.121Z,97700.97
2022-08-20T03:37:55.911Z,97704.06
2022-08-20T03:39:04.444Z,97706.47
2022-08-20T03:40:12.752Z,97703.41
2022-08-20T03:41:15.893Z,97702.62
2022-08-20T03:42:19.780Z,97717.41
2022-08-20T03:43:22.997Z,97704.75
2022-08-20T03:44:26.975Z,97710.25
2022-08-20T03:45:30.338Z,97707.19
2022-08-20T03:46:34.157Z,97712.16
2022-08-20T03:47:37.122Z,97708.28
2022-08-20T03:48:40.137Z,97709.50
2022-08-20T03:49:43.589Z,97722.34
2022-08-20T03:50:49.002Z,97720.88
2022-08-20T03:51:57.368Z,97727.63
2022-08-20T03:53:01.898Z,97724.97
2022-08-20T03:54:05.006Z,97722.00
2022-08-20T03:55:10.017Z,97725.72
2022-08-20T03:56:13.216Z,97718.19
2022-08-20T03:57:16.979Z,97716.69
2022-08-20T03:58:19.977Z,97712.19
2022-08-20T03:59:22.872Z,97702.75
2022-08-20T04:00:31.565Z,97700.19
2022-08-20T04:01:44.228Z,97704.03
2022-08-20T04:02:49.825Z,97700.59
2022-08-20T04:03:55.192Z,97698.72
2022-08-20T04:04:58.284Z,97699.53
2022-08-20T04:06:01.566Z,97698.38
2022-08-20T04:07:17.772Z,97699.44
2022-08-20T04:08:27.645Z,97706.66
2022-08-20T04:09:30.541Z,97703.75
2022-08-20T04:10:33.594Z,97705.94
2022-08-20T04:11:37.605Z,97702.06
2022-08-20T04:12:42.046Z,97694.88
2022-08-20T04:13:59.146Z,97696.41
2022-08-20T04:15:05.513Z,97680.12
2022-08-20T04:16:13.348Z,97678.13
2022-08-20T04:17:19.300Z,97678.94
2022-08-20T04:18:24.595Z,97675.16
2022-08-20T04:19:31.212Z,97680.94
2022-08-20T04:20:38.827Z,97679.34
2022-08-20T04:21:41.836Z,97677.84
2022-08-20T04:22:58.351Z,97675.50
2022-08-20T04:24:04.700Z,97668.25
2022-08-20T04:25:10.857Z,97660.72
2022-08-20T04:26:20.278Z,97657.00
2022-08-20T04:27:23.144Z,97651.03
2022-08-20T04:28:30.446Z,97657.88
2022-08-20T04:29:35.523Z,97648.31
2022-08-20T04:30:38.757Z,97658.03
2022-08-20T04:31:46.464Z,97659.50
2022-08-20T04:32:50.276Z,97664.88
2022-08-20T04:33:53.961Z,97654.44
2022-08-20T04:34:57.661Z,97662.13
2022-08-20T04:36:02.932Z,97663.38
2022-08-20T04:37:06.541Z,97662.50
2022-08-20T04:38:22.720Z,97662.44
2022-08-20T04:39:25.860Z,97667.75
2022-08-20T04:40:48.269Z,97651.38
2022-08-20T04:41:57.095Z,97649.72
2022-08-20T04:43:05.435Z,97647.69
2022-08-20T04:44:09.446Z,97656.00
2022-08-20T04:45:12.382Z,97653.75
2022-08-20T04:46:15.698Z,97667.13
2022-08-20T04:47:25.421Z,97663.16
2022-08-20T04:48:39.893Z,97669.41
2022-08-20T04:49:43.514Z,97671.97
2022-08-20T04:50:49.736Z,97673.16
2022-08-20T04:51:54.832Z,97668.03
2022-08-20T04:53:00.279Z,97671.03
2022-08-20T04:54:04.095Z,97673.34
2022-08-20T04:55:07.921Z,97678.91
2022-08-20T04:56:11.529Z,97668.59
2022-08-20T04:57:14.561Z,97672.06
2022-08-20T04:58:38.584Z,97667.75
2022-08-20T04:59:41.530Z,97675.19
2022-08-20T05:00:50.307Z,97677.13
2022-08-20T05:01:53.403Z,97678.69
2022-08-20T05:02:56.250Z,97684.09
2022-08-20T05:04:00.268Z,97684.06
2022-08-20T05:05:03.228Z,97686.81
2022-08-20T05:06:08.941Z,97702.44
2022-08-20T05:07:13.701Z,97699.87
2022-08-20T05:08:20.020Z,97709.31
2022-08-20T05:09:23.314Z,97706.47
2022-08-20T05:10:26.868Z,97710.06
2022-08-20T05:11:33.808Z,97702.88
2022-08-20T05:12:42.331Z,97700.28
2022-08-20T05:13:59.636Z,97707.91
2022-08-20T05:15:02.593Z,97701.16
2022-08-20T05:16:05.778Z,97704.59
2022-08-20T05:17:09.785Z,97706.87
2022-08-20T05:18:13.469Z,97701.22
2022-08-20T05:19:17.720Z,97702.81
2022-08-20T05:20:21.310Z,97695.66
2022-08-20T05:21:24.263Z,97697.63
2022-08-20T05:22:31.124Z,97698.00
2022-08-20T05:23:36.674Z,97696.94
2022-08-20T05:24:39.882Z,97687.41
2022-08-20T05:25:45.289Z,97685.19
2022-08-20T05:26:48.166Z,97680.88
2022-08-20T05:27:57.211Z,97680.34
2022-08-20T05:29:00.380Z,97678.81
2022-08-20T05:30:08.357Z,97679.72
2022-08-20T05:31:15.603Z,97675.28
2022-08-20T05:32:18.538Z,97677.88
2022-08-20T05:33:23.262Z,97670.63
2022-08-20T05:34:26.679Z,97673.00
2022-08-20T05:35:30.258Z,97672.25
2022-08-20T05:36:33.307Z,97678.09
2022-08-20T05:37:38.267Z,97674.28
2022-08-20T05:38:41.096Z,97675.91
2022-08-20T05:39:52.996Z,97671.38
2022-08-20T05:40:56.145Z,97679.69
2022-08-20T05:41:59.503Z,97673.94
2022-08-20T05:43:04.889Z,97675.84
2022-08-20T05:44:15.844Z,97682.00
2022-08-20T05:45:18.985Z,97677.41
2022-08-20T05:46:23.212Z,97676.25
2022-08-20T05:47:28.688Z,97675.09
2022-08-20T05:48:35.832Z,97669.75
2022-08-20T05:49:38.823Z,97676.97
2022-08-20T05:50:43.748Z,97686.09
2022-08-20T05:51:47.573Z,97685.06
2022-08-20T05:52:51.076Z,97688.84
2022-08-20T05:53:54.040Z,97683.09
2022-08-20T05:54:57.018Z,97683.06
2022-08-20T05:56:02.023Z,97686.91
2022-08-20T05:57:05.341Z,97689.22
2022-08-20T05:58:17.244Z,97690.00
2022-08-20T05:59:24.114Z,97698.72
2022-08-20T06:00:29.288Z,97698.03
2022-08-20T06:01:34.701Z,97698.06
2022-08-20T06:02:56.391Z,97694.00
2022-08-20T06:04:18.159Z,97692.84
2022-08-20T06:05:21.289Z,97684.84
2022-08-20T06:06:46.371Z,97686.25
2022-08-20T06:07:49.203Z,97684.72
2022-08-20T06:08:52.124Z,97678.59
2022-08-20T06:09:55.095Z,97673.66
2022-08-20T06:10:58.355Z,97674.47
2022-08-20T06:12:04.545Z,97670.28
2022-08-20T06:13:07.883Z,97678.00
2022-08-20T06:14:11.299Z,97675.72
2022-08-20T06:15:14.764Z,97671.16
2022-08-20T06:16:17.721Z,97678.81
2022-08-20T06:17:22.167Z,97675.34
2022-08-20T06:18:27.679Z,97674.19
2022-08-20T06:19:32.526Z,97666.19
2022-08-20T06:20:38.600Z,97667.34
2022-08-20T06:21:41.659Z,97675.34
2022-08-20T06:22:45.299Z,97667.28
2022-08-20T06:23:57.276Z,97675.28
2022-08-20T06:25:04.263Z,97674.19
2022-08-20T06:26:09.615Z,97678.66
2022-08-20T06:27:15.508Z,97685.94
2022-08-20T06:28:18.975Z,97692.44
2022-08-20T06:29:21.979Z,97692.09
2022-08-20T06:30:25.683Z,97694.81
2022-08-20T06:31:29.425Z,97691.75
2022-08-20T06:32:33.917Z,97695.16
2022-08-20T06:33:40.472Z,97685.28
2022-08-20T06:34:50.202Z,97695.94
2022-08-20T06:35:53.971Z,97701.25
2022-08-20T06:36:58.661Z,97706.56
2022-08-20T06:38:02.020Z,97709.28
2022-08-20T06:39:05.081Z,97713.47
2022-08-20T06:40:12.589Z,97716.88
2022-08-20T06:41:15.616Z,97717.28
2022-08-20T06:42:20.794Z,97732.59
2022-08-20T06:43:23.997Z,97725.31
2022-08-20T06:44:28.693Z,97735.94
2022-08-20T06:45:33.249Z,97736.66
2022-08-20T06:46:37.137Z,97747.00
2022-08-20T06:47:42.280Z,97761.53
2022-08-20T06:48:45.259Z,97762.56
2022-08-20T06:49:49.180Z,97765.63
2022-08-20T06:50:53.495Z,97762.63
2022-08-20T06:51:56.625Z,97759.59
2022-08-20T06:53:00.165Z,97761.50
2022-08-20T06:54:04.153Z,97761.50
2022-08-20T06:55:09.514Z,97758.09
2022-08-20T06:56:12.952Z,97759.66
2022-08-20T06:57:17.442Z,97764.94
2022-08-20T06:58:37.017Z,97756.53
2022-08-20T06:59:44.455Z,97762.66
2022-08-20T07:00:57.172Z,97770.69
2022-08-20T07:02:00.234Z,97776.81
2022-08-20T07:03:04.113Z,97779.84
2022-08-20T07:04:08.679Z,97786.31
2022-08-20T07:05:12.860Z,97789.69
2022-08-20T07:06:16.760Z,97791.19
2022-08-20T07:07:22.870Z,97795.34
2022-08-20T07:08:25.880Z,97796.88
2022-08-20T07:09:29.220Z,97794.53
2022-08-20T07:10:32.346Z,97790.37
2022-08-20T07:11:35.603Z,97784.69
2022-08-20T07:12:38.635Z,97789.28
2022-08-20T07:13:42.274Z,97792.63
2022-08-20T07:14:45.227Z,97788.03
2022-08-20T07:15:52.987Z,97789.94
2022-08-20T07:16:57.164Z,97791.31
2022-08-20T07:18:04.428Z,97788.97
2022-08-20T07:19:08.650Z,97794.75
2022-08-20T07:20:18.469Z,97796.22
2022-08-20T07:21:21.299Z,97799.41
2022-08-20T07:22:26.365Z,97798.53
2022-08-20T07:23:31.797Z,97788.84
2022-08-20T07:24:37.875Z,97789.28
2022-08-20T07:25:44.711Z,97783.63
2022-08-20T07:26:47.592Z,97789.28
2022-08-20T07:27:51.037Z,97787.47
2022-08-20T07:28:54.910Z,97792.03
2022-08-20T07:30:16.655Z,97790.47
2022-08-20T07:31:42.164Z,97790.44
2022-08-20T07:32:46.162Z,97798.87
2022-08-20T07:33:50.946Z,97815.63
2022-08-20T07:34:59.619Z,97809.53
2022-08-20T07:36:04.611Z,97815.59
2022-08-20T07:37:11.380Z,97803.00
2022-08-20T07:38:24.320Z,97810.91
2022-08-20T07:39:28.505Z,97801.88
2022-08-20T07:40:35.645Z,97815.19
2022-08-20T07:41:39.837Z,97830.72
2022-08-20T07:42:46.249Z,97831.50
2022-08-20T07:43:49.324Z,97826.44
2022-08-20T07:44:52.758Z,97821.53
2022-08-20T07:46:01.255Z,97826.78
2022-08-20T07:47:06.715Z,97829.75
2022-08-20T07:48:30.991Z,97830.03
2022-08-20T07:49:39.517Z,97823.22
2022-08-20T07:50:43.123Z,97832.03
2022-08-20T07:51:45.977Z,97830.28
2022-08-20T07:52:49.144Z,97839.81
2022-08-20T07:53:52.922Z,97841.66
2022-08-20T07:54:55.882Z,97848.34
2022-08-20T07:55:59.426Z,97862.22
2022-08-20T07:57:03.664Z,97880.91
2022-08-20T07:58:10.607Z,97887.41
2022-08-20T07:59:14.109Z,97878.06
2022-08-20T08:00:19.593Z,97890.94
2022-08-20T08:01:26.575Z,97893.50
2022-08-20T08:02:29.537Z,97905.13
2022-08-20T08:03:39.449Z,97917.44
2022-08-20T08:04:52.316Z,97919.50
2022-08-20T08:05:56.961Z,97926.16
2022-08-20T08:07:00.806Z,97922.31
2022-08-20T08:08:07.333Z,97928.66
2022-08-20T08:09:16.462Z,97919.19
2022-08-20T08:10:23.541Z,97922.31
2022-08-20T08:11:30.395Z,97914.63
2022-08-20T08:12:40.687Z,97920.47
2022-08-20T08:13:44.600Z,97907.75
2022-08-20T08:14:51.435Z,97899.03
2022-08-20T08:16:02.065Z,97895.06
2022-08-20T08:17:07.430Z,97886.34
2022-08-20T08:18:22.082Z,97881.66
2022-08-20T08:19:28.599Z,97880.16
2022-08-20T08:20:31.765Z,97878.81
2022-08-20T08:21:37.358Z,97887.28
2022-08-20T08:22:43.153Z,97891.53
2022-08-20T08:23:46.119Z,97895.72
2022-08-20T08:24:57.425Z,97898.50
2022-08-20T08:26:07.309Z,97899.69
2022-08-20T08:27:19.116Z,97902.44
2022-08-20T08:28:22.306Z,97905.63
2022-08-20T08:29:25.203Z,97894.44
2022-08-20T08:30:31.548Z,97897.31
2022-08-20T08:31:35.425Z,97892.09
2022-08-20T08:32:59.056Z,97903.47
2022-08-20T08:34:02.092Z,97902.41
2022-08-20T08:35:07.823Z,97905.63
2022-08-20T08:36:16.387Z,97901.22
2022-08-20T08:37:19.219Z,97893.16
2022-08-20T08:38:23.915Z,97908.34
2022-08-20T08:39:26.703Z,97913.28
2022-08-20T08:40:38.120Z,97907.84
2022-08-20T08:41:50.349Z,97910.78
2022-08-20T08:42:58.943Z,97911.75
2022-08-20T08:44:22.232Z,97900.97
2022-08-20T08:45:34.589Z,97893.81
2022-08-20T08:46:44.990Z,97891.78
2022-08-20T08:47:48.389Z,97891.78
2022-08-20T08:48:55.312Z,97876.78
2022-08-20T08:49:59.028Z,97867.97
2022-08-20T08:51:12.624Z,97864.97
2022-08-20T08:52:22.920Z,97857.28
2022-08-20T08:53:30.820Z,97848.44
2022-08-20T08:54:35.408Z,97843.78
2022-08-20T08:55:38.253Z,97834.50
2022-08-20T08:56:41.330Z,97831.78
2022-08-20T08:57:44.486Z,97832.88
2022-08-20T08:58:47.462Z,97829.19
2022-08-20T09:00:03.525Z,97831.63
2022-08-20T09:01:53.914Z,97829.31
2022-08-20T09:03:08.198Z,97826.66
2022-08-20T09:04:11.788Z,97828.13
2022-08-20T09:05:19.588Z,97829.72
2022-08-20T09:06:26.403Z,97831.25
2022-08-20T09:07:34.088Z,97832.00
2022-08-20T09:08:45.124Z,97823.31
2022-08-20T09:09:48.140Z,97819.53
2022-08-20T09:10:51.308Z,97814.22
2022-08-20T09:11:58.303Z,97819.75
2022-08-20T09:13:02.653Z,97815.97
2022-08-20T09:14:05.685Z,97824.66
2022-08-20T09:15:09.097Z,97828.94
2022-08-20T09:16:13.551Z,97843.09
2022-08-20T09:17:18.424Z,97846.78
2022-08-20T09:18:25.350Z,97849.03
2022-08-20T09:19:28.715Z,97858.44
2022-08-20T09:20:31.790Z,97855.69
2022-08-20T09:21:34.827Z,97862.72
2022-08-20T09:22:37.906Z,97862.62
2022-08-20T09:23:41.617Z,97872.50
2022-08-20T09:24:45.597Z,97878.84
2022-08-20T09:25:48.627Z,97885.28
2022-08-20T09:26:51.847Z,97886.78
2022-08-20T09:27:58.569Z,97891.75
2022-08-20T09:29:02.485Z,97891.88
2022-08-20T09:30:05.912Z,97887.31
2022-08-20T09:31:09.412Z,97899.13
2022-08-20T09:32:24.190Z,97890.31
2022-08-20T09:33:27.500Z,97890.94
2022-08-20T09:34:30.510Z,97891.66
2022-08-20T09:35:34.700Z,97884.28
2022-08-20T09:36:38.098Z,97886.03
2022-08-20T09:37:41.417Z,97880.81
2022-08-20T09:38:44.525Z,97880.13
2022-08-20T09:39:48.288Z,97891.31
2022-08-20T09:40:51.223Z,97891.72
2022-08-20T09:41:54.218Z,97892.25
2022-08-20T09:42:57.579Z,97898.50
2022-08-20T09:44:00.574Z,97893.19
2022-08-20T09:45:04.700Z,97890.72
2022-08-20T09:46:14.041Z,97881.16
2022-08-20T09:47:17.799Z,97871.91
2022-08-20T09:48:20.986Z,97873.44
2022-08-20T09:49:33.423Z,97863.56
2022-08-20T09:50:37.706Z,97864.03
2022-08-20T09:51:40.766Z,97855.97
2022-08-20T09:52:48.772Z,97867.66
2022-08-20T09:53:55.145Z,97849.31
2022-08-20T09:55:17.475Z,97856.22
2022-08-20T09:56:20.716Z,97846.47
2022-08-20T09:57:24.129Z,97845.06
2022-08-20T09:58:38.746Z,97840.09
2022-08-20T09:59:42.154Z,97846.06
2022-08-20T10:00:45.213Z,97830.63
2022-08-20T10:01:48.103Z,97832.12
2022-08-20T10:02:51.119Z,97828.91
2022-08-20T10:03:53.997Z,97814.50
2022-08-20T10:04:57.520Z,97809.16
2022-08-20T10:06:00.587Z,97806.41
2022-08-20T10:07:08.602Z,97796.06
2022-08-20T10:08:13.231Z,97784.75
2022-08-20T10:09:16.543Z,97775.41
2022-08-20T10:10:19.473Z,97773.25
2022-08-20T10:11:22.401Z,97759.28
2022-08-20T10:12:25.283Z,97757.38
2022-08-20T10:13:28.250Z,97742.06
2022-08-20T10:14:31.635Z,97737.37
2022-08-20T10:15:34.706Z,97746.03
2022-08-20T10:16:37.974Z,97737.53
2022-08-20T10:17:43.399Z,97727.72
2022-08-20T10:18:48.395Z,97722.22
2022-08-20T10:19:51.286Z,97724.69
2022-08-20T10:20:54.170Z,97718.97
2022-08-20T10:21:58.203Z,97709.38
2022-08-20T10:23:01.382Z,97698.16
2022-08-20T10:24:04.268Z,97703.09
2022-08-20T10:25:08.171Z,97691.56
2022-08-20T10:26:13.040Z,97682.28
2022-08-20T10:27:16.223Z,97687.81
2022-08-20T10:28:19.195Z,97676.97
2022-08-20T10:29:22.086Z,97677.03
2022-08-20T10:30:25.739Z,97674.84
2022-08-20T10:31:29.189Z,97673.81
2022-08-20T10:32:32.343Z,97668.94
2022-08-20T10:33:35.360Z,97669.37
2022-08-20T10:34:40.593Z,97679.00
2022-08-20T10:35:43.541Z,97676.25
2022-08-20T10:36:47.251Z,97693.53
2022-08-20T10:37:50.336Z,97686.78
2022-08-20T10:38:53.413Z,97700.59
2022-08-20T10:39:58.597Z,97712.91
2022-08-20T10:41:01.752Z,97724.97
2022-08-20T10:42:04.667Z,97733.81
2022-08-20T10:43:07.599Z,97750.09
2022-08-20T10:44:10.627Z,97764.66
2022-08-20T10:45:16.249Z,97770.84
2022-08-20T10:46:19.042Z,97781.94
2022-08-20T10:47:28.696Z,97788.19
2022-08-20T10:48:32.454Z,97806.44
2022-08-20T10:49:41.375Z,97805.34
2022-08-20T10:50:44.312Z,97818.31
2022-08-20T10:51:47.231Z,97828.19
2022-08-20T10:52:50.762Z,97828.94
2022-08-20T10:53:54.158Z,97819.44
2022-08-20T10:54:57.008Z,97825.31
2022-08-20T10:55:59.925Z,97830.91
2022-08-20T10:57:07.544Z,97831.41
2022-08-20T10:58:11.340Z,97825.72
2022-08-20T10:59:14.984Z,97824.56
2022-08-20T11:00:25.874Z,97826.88
2022-08-20T11:01:32.649Z,97825.38
2022-08-20T11:02:37.209Z,97828.41
2022-08-20T11:03:43.659Z,97821.19
2022-08-20T11:04:46.833Z,97825.00
2022-08-20T11:05:50.063Z,97820.78
2022-08-20T11:06:53.155Z,97820.78
2022-08-20T11:07:56.850Z,97824.22
2022-08-20T11:08:59.931Z,97829.19
2022-08-20T11:10:03.389Z,97826.09
2022-08-20T11:11:07.274Z,97829.19
2022-08-20T11:12:10.912Z,97828.44
2022-08-20T11:13:13.867Z,97836.44
2022-08-20T11:14:16.967Z,97835.69
2022-08-20T11:15:19.870Z,97835.34
2022-08-20T11:16:22.771Z,97838.41
2022-08-20T11:17:30.317Z,97834.19
2022-08-20T11:18:34.318Z,97833.81
2022-08-20T11:19:44.704Z,97833.44
2022-08-20T11:20:47.605Z,97842.53
2022-08-20T11:21:50.485Z,97833.34
2022-08-20T11:22:54.852Z,97840.59
2022-08-20T11:24:01.061Z,97846.31
2022-08-20T11:25:06.556Z,97845.81
2022-08-20T11:26:09.941Z,97843.06
2022-08-20T11:27:22.257Z,97853.31
2022-08-20T11:28:31.265Z,97846.34
2022-08-20T11:29:36.661Z,97845.72
2022-08-20T11:30:39.861Z,97849.03
2022-08-20T11:31:43.158Z,97852.31
2022-08-20T11:32:46.194Z,97854.69
2022-08-20T11:33:49.111Z,97851.81
2022-08-20T11:34:52.401Z,97853.22
2022-08-20T11:35:55.370Z,97850.63
2022-08-20T11:36:59.484Z,97838.84
2022-08-20T11:38:03.731Z,97839.22
2022-08-20T11:39:07.014Z,97838.91
2022-08-20T11:40:12.452Z,97840.41
2022-08-20T11:41:15.525Z,97827.06
2022-08-20T11:43:26.954Z,97825.09
2022-08-20T11:44:29.893Z,97825.91
2022-08-20T11:45:32.993Z,97822.69
2022-08-20T11:46:40.746Z,97822.09
2022-08-20T11:47:43.622Z,97824.66
2022-08-20T11:48:46.995Z,97820.78
2022-08-20T11:50:23.124Z,97812.09
2022-08-20T11:51:26.301Z,97809.88
2022-08-20T11:52:29.724Z,97804.34
2022-08-20T11:53:32.707Z,97801.47
2022-08-20T11:54:40.721Z,97797.38
2022-08-20T11:55:44.433Z,97803.69
2022-08-20T11:56:47.748Z,97799.19
2022-08-20T11:57:50.710Z,97799.19
2022-08-20T11:58:53.669Z,97795.12
2022-08-20T11:59:58.414Z,97805.78
2022-08-20T12:01:01.428Z,97797.78
2022-08-20T12:02:06.121Z,97805.00
2022-08-20T12:03:12.546Z,97797.00
2022-08-20T12:04:15.778Z,97795.91
2022-08-20T12:05:19.887Z,97792.81
2022-08-20T12:06:22.896Z,97785.13
2022-08-20T12:07:26.581Z,97796.16
2022-08-20T12:08:29.811Z,97792.63
2022-08-20T12:09:32.788Z,97797.03
2022-08-20T12:10:36.892Z,97790.56
2022-08-20T12:11:39.824Z,97790.03
2022-08-20T12:12:51.430Z,97785.56
2022-08-20T12:13:54.478Z,97784.47
2022-08-20T12:14:58.242Z,97789.00
2022-08-20T12:16:02.653Z,97790.09
2022-08-20T12:17:18.005Z,97784.81
2022-08-20T12:18:21.619Z,97782.53
2022-08-20T12:19:29.973Z,97779.00
2022-08-20T12:20:32.960Z,97774.63
2022-08-20T12:21:35.971Z,97767.44
2022-08-20T12:22:39.265Z,97766.69
2022-08-20T12:23:42.414Z,97768.72
2022-08-20T12:24:46.230Z,97770.63
2022-08-20T12:25:49.922Z,97762.09
2022-08-20T12:26:52.832Z,97763.31
2022-08-20T12:27:56.871Z,97759.47
2022-08-20T12:28:59.850Z,97759.06
2022-08-20T12:30:07.222Z,97761.06
2022-08-20T12:31:10.557Z,97757.69
2022-08-20T12:32:14.032Z,97762.28
2022-08-20T12:33:17.030Z,97759.63
2022-08-20T12:34:20.000Z,97753.16
2022-08-20T12:35:23.303Z,97752.72
2022-08-20T12:36:26.742Z,97745.53
2022-08-20T12:37:31.785Z,97743.63
2022-08-20T12:38:34.768Z,97747.03
2022-08-20T12:39:48.276Z,97747.44
2022-08-20T12:40:52.428Z,97750.47
2022-08-20T12:41:55.967Z,97742.41
2022-08-20T12:43:02.225Z,97741.59
2022-08-20T12:44:07.341Z,97741.66
2022-08-20T12:45:17.424Z,97736.31
2022-08-20T12:46:20.328Z,97731.78
2022-08-20T12:47:26.703Z,97731.00
2022-08-20T12:48:29.701Z,97727.56
2022-08-20T12:49:33.746Z,97729.87
2022-08-20T12:50:39.423Z,97719.63
2022-08-20T12:51:42.410Z,97722.97
2022-08-20T12:52:46.518Z,97717.22
2022-08-20T12:53:49.354Z,97719.94
2022-08-20T12:54:52.615Z,97712.28